sensor_id;sensor_type;location;lat;lon;timestamp;temperature;humidity
65854;DHT22;52627;48.838;2.402;2023-02-08T00:01:08;4.68;59.30
65854;DHT22;52627;48.838;2.402;2023-02-08T00:03:37;4.65;59.30
65854;DHT22;52627;48.838;2.402;2023-02-08T00:06:05;4.64;59.30
65854;DHT22;52627;48.838;2.402;2023-02-08T00:08:34;4.61;59.30
65854;DHT22;52627;48.838;2.402;2023-02-08T00:11:03;4.60;59.31
65854;DHT22;52627;48.838;2.402;2023-02-08T00:13:32;4.59;59.32
65854;DHT22;52627;48.838;2.402;2023-02-08T00:16:00;4.60;59.38
65854;DHT22;52627;48.838;2.402;2023-02-08T00:18:28;4.61;59.34
65854;DHT22;52627;48.838;2.402;2023-02-08T00:20:55;4.61;59.39
65854;DHT22;52627;48.838;2.402;2023-02-08T00:23:24;4.61;59.39
65854;DHT22;52627;48.838;2.402;2023-02-08T00:25:52;4.61;59.37
65854;DHT22;52627;48.838;2.402;2023-02-08T00:28:20;4.61;59.39
65854;DHT22;52627;48.838;2.402;2023-02-08T00:30:47;4.60;59.38
65854;DHT22;52627;48.838;2.402;2023-02-08T00:33:15;4.61;59.37
65854;DHT22;52627;48.838;2.402;2023-02-08T00:35:43;4.61;59.37
65854;DHT22;52627;48.838;2.402;2023-02-08T00:38:10;4.61;59.38
65854;DHT22;52627;48.838;2.402;2023-02-08T00:40:38;4.59;59.33
65854;DHT22;52627;48.838;2.402;2023-02-08T00:43:05;4.58;59.33
65854;DHT22;52627;48.838;2.402;2023-02-08T00:45:33;4.58;59.37
65854;DHT22;52627;48.838;2.402;2023-02-08T00:48:00;4.57;59.38
65854;DHT22;52627;48.838;2.402;2023-02-08T00:50:28;4.57;59.37
65854;DHT22;52627;48.838;2.402;2023-02-08T00:52:57;4.56;59.38
65854;DHT22;52627;48.838;2.402;2023-02-08T00:55:25;4.55;59.40
65854;DHT22;52627;48.838;2.402;2023-02-08T00:57:53;4.53;59.40
65854;DHT22;52627;48.838;2.402;2023-02-08T01:00:21;4.52;59.40
65854;DHT22;52627;48.838;2.402;2023-02-08T01:02:48;4.52;59.40
65854;DHT22;52627;48.838;2.402;2023-02-08T01:05:16;4.50;59.40
65854;DHT22;52627;48.838;2.402;2023-02-08T01:07:43;4.48;59.40
65854;DHT22;52627;48.838;2.402;2023-02-08T01:10:11;4.48;59.39
65854;DHT22;52627;48.838;2.402;2023-02-08T01:12:38;4.47;59.38
65854;DHT22;52627;48.838;2.402;2023-02-08T01:15:06;4.46;59.37
65854;DHT22;52627;48.838;2.402;2023-02-08T01:17:34;4.46;59.37
65854;DHT22;52627;48.838;2.402;2023-02-08T01:20:02;4.44;59.30
65854;DHT22;52627;48.838;2.402;2023-02-08T01:22:30;4.43;59.31
65854;DHT22;52627;48.838;2.402;2023-02-08T01:24:57;4.42;59.31
65854;DHT22;52627;48.838;2.402;2023-02-08T01:27:27;4.40;59.32
65854;DHT22;52627;48.838;2.402;2023-02-08T01:29:54;4.40;59.32
65854;DHT22;52627;48.838;2.402;2023-02-08T01:32:22;4.38;59.36
65854;DHT22;52627;48.838;2.402;2023-02-08T01:34:49;4.36;59.39
65854;DHT22;52627;48.838;2.402;2023-02-08T01:37:16;4.34;59.40
65854;DHT22;52627;48.838;2.402;2023-02-08T01:39:44;4.30;59.46
65854;DHT22;52627;48.838;2.402;2023-02-08T01:42:15;4.28;59.51
65854;DHT22;52627;48.838;2.402;2023-02-08T01:47:54;4.23;59.60
65854;DHT22;52627;48.838;2.402;2023-02-08T01:50:31;4.20;59.63
65854;DHT22;52627;48.838;2.402;2023-02-08T01:53:06;4.16;59.68
65854;DHT22;52627;48.838;2.402;2023-02-08T01:55:35;4.13;59.69
65854;DHT22;52627;48.838;2.402;2023-02-08T01:58:07;4.09;59.77
65854;DHT22;52627;48.838;2.402;2023-02-08T02:00:37;4.06;59.80
65854;DHT22;52627;48.838;2.402;2023-02-08T02:03:05;4.03;59.80
65854;DHT22;52627;48.838;2.402;2023-02-08T02:05:43;4.01;59.86
65854;DHT22;52627;48.838;2.402;2023-02-08T02:08:14;3.99;59.90
65854;DHT22;52627;48.838;2.402;2023-02-08T02:10:42;3.98;59.90
65854;DHT22;52627;48.838;2.402;2023-02-08T02:13:17;3.97;59.96
65854;DHT22;52627;48.838;2.402;2023-02-08T02:15:48;3.96;59.99
65854;DHT22;52627;48.838;2.402;2023-02-08T02:18:29;3.94;60.00
65854;DHT22;52627;48.838;2.402;2023-02-08T02:21:03;3.94;60.01
65854;DHT22;52627;48.838;2.402;2023-02-08T02:36:20;3.86;60.10
65854;DHT22;52627;48.838;2.402;2023-02-08T02:38:30;3.84;60.09
65854;DHT22;52627;48.838;2.402;2023-02-08T02:41:40;3.80;60.10
65854;DHT22;52627;48.838;2.402;2023-02-08T02:56:14;3.69;60.19
65854;DHT22;52627;48.838;2.402;2023-02-08T02:58:46;3.69;60.20
65854;DHT22;52627;48.838;2.402;2023-02-08T03:01:20;3.68;60.20
65854;DHT22;52627;48.838;2.402;2023-02-08T03:03:53;3.67;60.20
65854;DHT22;52627;48.838;2.402;2023-02-08T03:09:34;3.63;60.21
65854;DHT22;52627;48.838;2.402;2023-02-08T03:16:11;3.59;60.30
65854;DHT22;52627;48.838;2.402;2023-02-08T03:24:32;3.56;60.31
65854;DHT22;52627;48.838;2.402;2023-02-08T03:27:27;3.54;60.39
65854;DHT22;52627;48.838;2.402;2023-02-08T03:30:09;3.52;60.40
65854;DHT22;52627;48.838;2.402;2023-02-08T03:32:51;3.51;60.40
65854;DHT22;52627;48.838;2.402;2023-02-08T03:35:53;3.48;60.40
65854;DHT22;52627;48.838;2.402;2023-02-08T03:38:32;3.45;60.42
65854;DHT22;52627;48.838;2.402;2023-02-08T03:41:06;3.43;60.47
65854;DHT22;52627;48.838;2.402;2023-02-08T03:43:42;3.41;60.50
65854;DHT22;52627;48.838;2.402;2023-02-08T03:48:58;3.33;60.51
65854;DHT22;52627;48.838;2.402;2023-02-08T03:51:31;3.33;60.58
65854;DHT22;52627;48.838;2.402;2023-02-08T03:54:01;3.31;60.59
65854;DHT22;52627;48.838;2.402;2023-02-08T03:56:34;3.28;60.61
65854;DHT22;52627;48.838;2.402;2023-02-08T03:59:11;3.24;60.68
65854;DHT22;52627;48.838;2.402;2023-02-08T04:01:46;3.23;60.76
65854;DHT22;52627;48.838;2.402;2023-02-08T04:04:20;3.22;60.80
65854;DHT22;52627;48.838;2.402;2023-02-08T04:06:48;3.21;60.80
65854;DHT22;52627;48.838;2.402;2023-02-08T04:09:15;3.19;60.86
65854;DHT22;52627;48.838;2.402;2023-02-08T04:11:43;3.18;60.90
65854;DHT22;52627;48.838;2.402;2023-02-08T04:14:10;3.17;60.90
65854;DHT22;52627;48.838;2.402;2023-02-08T04:16:38;3.17;60.91
65854;DHT22;52627;48.838;2.402;2023-02-08T04:19:05;3.14;60.97
65854;DHT22;52627;48.838;2.402;2023-02-08T04:21:33;3.10;61.01
65854;DHT22;52627;48.838;2.402;2023-02-08T04:24:00;3.07;61.09
65854;DHT22;52627;48.838;2.402;2023-02-08T04:26:27;3.06;61.10
65854;DHT22;52627;48.838;2.402;2023-02-08T04:28:55;3.04;61.10
65854;DHT22;52627;48.838;2.402;2023-02-08T04:31:22;3.02;61.10
65854;DHT22;52627;48.838;2.402;2023-02-08T04:33:50;3.01;61.14
65854;DHT22;52627;48.838;2.402;2023-02-08T04:36:18;3.01;61.18
65854;DHT22;52627;48.838;2.402;2023-02-08T04:38:45;2.99;61.18
65854;DHT22;52627;48.838;2.402;2023-02-08T04:41:22;3.00;61.20
65854;DHT22;52627;48.838;2.402;2023-02-08T04:44:14;2.98;61.20
65854;DHT22;52627;48.838;2.402;2023-02-08T04:46:54;2.96;61.20
65854;DHT22;52627;48.838;2.402;2023-02-08T04:49:22;2.94;61.19
65854;DHT22;52627;48.838;2.402;2023-02-08T04:52:15;2.93;61.20
65854;DHT22;52627;48.838;2.402;2023-02-08T04:55:12;2.92;61.18
65854;DHT22;52627;48.838;2.402;2023-02-08T04:58:04;2.89;61.19
65854;DHT22;52627;48.838;2.402;2023-02-08T05:00:46;2.87;61.20
65854;DHT22;52627;48.838;2.402;2023-02-08T05:03:17;2.87;61.18
65854;DHT22;52627;48.838;2.402;2023-02-08T05:05:45;2.86;61.10
65854;DHT22;52627;48.838;2.402;2023-02-08T05:08:12;2.85;61.10
65854;DHT22;52627;48.838;2.402;2023-02-08T05:10:43;2.85;61.10
65854;DHT22;52627;48.838;2.402;2023-02-08T05:13:12;2.85;61.10
65854;DHT22;52627;48.838;2.402;2023-02-08T05:15:39;2.85;61.06
65854;DHT22;52627;48.838;2.402;2023-02-08T05:18:07;2.84;61.00
65854;DHT22;52627;48.838;2.402;2023-02-08T05:20:34;2.83;60.99
65854;DHT22;52627;48.838;2.402;2023-02-08T05:23:02;2.83;60.92
65854;DHT22;52627;48.838;2.402;2023-02-08T05:25:29;2.82;60.90
65854;DHT22;52627;48.838;2.402;2023-02-08T05:27:57;2.81;60.90
65854;DHT22;52627;48.838;2.402;2023-02-08T05:30:26;2.79;60.90
65854;DHT22;52627;48.838;2.402;2023-02-08T05:32:53;2.78;60.88
65854;DHT22;52627;48.838;2.402;2023-02-08T05:35:21;2.75;60.89
65854;DHT22;52627;48.838;2.402;2023-02-08T05:37:48;2.75;60.90
65854;DHT22;52627;48.838;2.402;2023-02-08T05:40:15;2.75;60.90
65854;DHT22;52627;48.838;2.402;2023-02-08T05:42:43;2.74;60.91
65854;DHT22;52627;48.838;2.402;2023-02-08T05:45:10;2.74;60.90
65854;DHT22;52627;48.838;2.402;2023-02-08T05:47:38;2.73;60.93
65854;DHT22;52627;48.838;2.402;2023-02-08T05:50:05;2.73;60.98
65854;DHT22;52627;48.838;2.402;2023-02-08T05:52:34;2.71;61.00
65854;DHT22;52627;48.838;2.402;2023-02-08T05:55:01;2.68;61.00
65854;DHT22;52627;48.838;2.402;2023-02-08T05:57:28;2.66;61.04
65854;DHT22;52627;48.838;2.402;2023-02-08T05:59:58;2.63;61.10
65854;DHT22;52627;48.838;2.402;2023-02-08T06:02:26;2.62;61.10
65854;DHT22;52627;48.838;2.402;2023-02-08T06:04:53;2.59;61.18
65854;DHT22;52627;48.838;2.402;2023-02-08T06:07:20;2.57;61.18
65854;DHT22;52627;48.838;2.402;2023-02-08T06:09:48;2.55;61.20
65854;DHT22;52627;48.838;2.402;2023-02-08T06:12:15;2.52;61.22
65854;DHT22;52627;48.838;2.402;2023-02-08T06:14:43;2.50;61.29
65854;DHT22;52627;48.838;2.402;2023-02-08T06:17:10;2.48;61.30
65854;DHT22;52627;48.838;2.402;2023-02-08T06:19:38;2.45;61.34
65854;DHT22;52627;48.838;2.402;2023-02-08T06:22:05;2.43;61.36
65854;DHT22;52627;48.838;2.402;2023-02-08T06:24:33;2.43;61.40
65854;DHT22;52627;48.838;2.402;2023-02-08T06:27:00;2.40;61.40
65854;DHT22;52627;48.838;2.402;2023-02-08T06:29:28;2.40;61.43
65854;DHT22;52627;48.838;2.402;2023-02-08T06:31:55;2.39;61.41
65854;DHT22;52627;48.838;2.402;2023-02-08T06:34:23;2.38;61.46
65854;DHT22;52627;48.838;2.402;2023-02-08T06:36:50;2.36;61.48
65854;DHT22;52627;48.838;2.402;2023-02-08T06:39:17;2.31;61.50
65854;DHT22;52627;48.838;2.402;2023-02-08T06:41:45;2.29;61.50
65854;DHT22;52627;48.838;2.402;2023-02-08T06:44:12;2.28;61.51
65854;DHT22;52627;48.838;2.402;2023-02-08T06:46:40;2.28;61.53
65854;DHT22;52627;48.838;2.402;2023-02-08T06:49:07;2.29;61.59
65854;DHT22;52627;48.838;2.402;2023-02-08T06:51:35;2.26;61.59
65854;DHT22;52627;48.838;2.402;2023-02-08T06:54:02;2.24;61.60
65854;DHT22;52627;48.838;2.402;2023-02-08T06:56:30;2.26;61.60
65854;DHT22;52627;48.838;2.402;2023-02-08T06:58:57;2.25;61.60
65854;DHT22;52627;48.838;2.402;2023-02-08T07:01:25;2.28;61.60
65854;DHT22;52627;48.838;2.402;2023-02-08T07:03:52;2.27;61.62
65854;DHT22;52627;48.838;2.402;2023-02-08T07:06:20;2.28;61.64
65854;DHT22;52627;48.838;2.402;2023-02-08T07:08:47;2.23;61.62
65854;DHT22;52627;48.838;2.402;2023-02-08T07:11:16;2.21;61.67
65854;DHT22;52627;48.838;2.402;2023-02-08T07:13:46;2.21;61.65
65854;DHT22;52627;48.838;2.402;2023-02-08T07:16:16;2.21;61.62
65854;DHT22;52627;48.838;2.402;2023-02-08T07:18:45;2.20;61.60
65854;DHT22;52627;48.838;2.402;2023-02-08T07:21:13;2.18;61.60
65854;DHT22;52627;48.838;2.402;2023-02-08T07:23:43;2.18;61.59
65854;DHT22;52627;48.838;2.402;2023-02-08T07:26:11;2.17;61.57
65854;DHT22;52627;48.838;2.402;2023-02-08T07:28:41;2.11;61.60
65854;DHT22;52627;48.838;2.402;2023-02-08T07:31:10;2.10;61.61
65854;DHT22;52627;48.838;2.402;2023-02-08T07:33:41;2.10;61.63
65854;DHT22;52627;48.838;2.402;2023-02-08T07:36:10;2.12;61.65
65854;DHT22;52627;48.838;2.402;2023-02-08T07:38:38;2.11;61.60
65854;DHT22;52627;48.838;2.402;2023-02-08T07:41:07;2.06;61.59
65854;DHT22;52627;48.838;2.402;2023-02-08T07:43:39;2.02;61.62
65854;DHT22;52627;48.838;2.402;2023-02-08T07:46:13;2.02;61.64
65854;DHT22;52627;48.838;2.402;2023-02-08T07:48:44;2.05;61.62
65854;DHT22;52627;48.838;2.402;2023-02-08T07:51:12;2.08;61.60
65854;DHT22;52627;48.838;2.402;2023-02-08T07:53:40;2.06;61.59
65854;DHT22;52627;48.838;2.402;2023-02-08T07:56:08;2.07;61.60
65854;DHT22;52627;48.838;2.402;2023-02-08T07:58:36;2.10;61.60
65854;DHT22;52627;48.838;2.402;2023-02-08T08:01:04;2.13;61.59
65854;DHT22;52627;48.838;2.402;2023-02-08T08:03:48;2.14;61.51
65854;DHT22;52627;48.838;2.402;2023-02-08T08:06:18;2.14;61.48
65854;DHT22;52627;48.838;2.402;2023-02-08T08:08:46;2.16;61.45
65854;DHT22;52627;48.838;2.402;2023-02-08T08:11:15;2.19;61.40
65854;DHT22;52627;48.838;2.402;2023-02-08T08:13:46;2.22;61.39
65854;DHT22;52627;48.838;2.402;2023-02-08T08:16:14;2.24;61.28
65854;DHT22;52627;48.838;2.402;2023-02-08T08:18:42;2.23;61.14
65854;DHT22;52627;48.838;2.402;2023-02-08T08:21:10;2.20;61.01
65854;DHT22;52627;48.838;2.402;2023-02-08T08:23:37;2.12;60.91
65854;DHT22;52627;48.838;2.402;2023-02-08T08:26:09;2.11;60.94
65854;DHT22;52627;48.838;2.402;2023-02-08T08:28:45;2.12;60.93
65854;DHT22;52627;48.838;2.402;2023-02-08T08:31:18;2.16;60.95
65854;DHT22;52627;48.838;2.402;2023-02-08T08:33:47;2.22;60.92
65854;DHT22;52627;48.838;2.402;2023-02-08T08:36:15;2.28;60.90
65854;DHT22;52627;48.838;2.402;2023-02-08T08:38:43;2.34;60.84
65854;DHT22;52627;48.838;2.402;2023-02-08T08:41:12;2.40;60.72
65854;DHT22;52627;48.838;2.402;2023-02-08T08:43:44;2.36;60.41
65854;DHT22;52627;48.838;2.402;2023-02-08T08:46:11;2.31;60.50
65854;DHT22;52627;48.838;2.402;2023-02-08T08:48:39;2.34;60.43
65854;DHT22;52627;48.838;2.402;2023-02-08T08:51:06;2.34;60.32
65854;DHT22;52627;48.838;2.402;2023-02-08T08:53:34;2.33;60.30
65854;DHT22;52627;48.838;2.402;2023-02-08T08:56:03;2.35;60.13
65854;DHT22;52627;48.838;2.402;2023-02-08T08:58:32;2.34;60.02
65854;DHT22;52627;48.838;2.402;2023-02-08T09:00:59;2.38;59.97
65854;DHT22;52627;48.838;2.402;2023-02-08T09:03:27;2.41;59.87
65854;DHT22;52627;48.838;2.402;2023-02-08T09:05:56;2.50;59.86
65854;DHT22;52627;48.838;2.402;2023-02-08T09:08:23;2.62;59.80
65854;DHT22;52627;48.838;2.402;2023-02-08T09:10:51;2.78;59.72
65854;DHT22;52627;48.838;2.402;2023-02-08T09:13:18;2.97;59.63
65854;DHT22;52627;48.838;2.402;2023-02-08T09:15:47;3.13;59.22
65854;DHT22;52627;48.838;2.402;2023-02-08T09:18:15;3.18;58.73
65854;DHT22;52627;48.838;2.402;2023-02-08T09:20:43;3.22;58.48
65854;DHT22;52627;48.838;2.402;2023-02-08T09:23:11;3.28;58.20
65854;DHT22;52627;48.838;2.402;2023-02-08T09:25:40;3.38;58.06
65854;DHT22;52627;48.838;2.402;2023-02-08T09:28:08;3.61;58.02
65854;DHT22;52627;48.838;2.402;2023-02-08T09:30:35;3.97;57.87
65854;DHT22;52627;48.838;2.402;2023-02-08T09:33:03;4.46;57.74
65854;DHT22;52627;48.838;2.402;2023-02-08T09:35:30;5.00;57.51
65854;DHT22;52627;48.838;2.402;2023-02-08T09:37:58;5.59;57.12
65854;DHT22;52627;48.838;2.402;2023-02-08T09:40:31;6.11;56.50
65854;DHT22;52627;48.838;2.402;2023-02-08T09:46:36;6.96;54.97
65854;DHT22;52627;48.838;2.402;2023-02-08T09:49:13;7.22;54.41
65854;DHT22;52627;48.838;2.402;2023-02-08T09:52:07;7.42;53.77
65854;DHT22;52627;48.838;2.402;2023-02-08T09:54:44;7.71;53.60
65854;DHT22;52627;48.838;2.402;2023-02-08T09:57:20;7.93;52.65
65854;DHT22;52627;48.838;2.402;2023-02-08T10:00:13;8.07;52.61
65854;DHT22;52627;48.838;2.402;2023-02-08T10:02:47;8.36;52.56
65854;DHT22;52627;48.838;2.402;2023-02-08T10:05:20;8.93;52.33
65854;DHT22;52627;48.838;2.402;2023-02-08T10:07:50;9.51;51.98
65854;DHT22;52627;48.838;2.402;2023-02-08T10:13:22;10.47;50.94
65854;DHT22;52627;48.838;2.402;2023-02-08T10:16:13;11.01;50.42
65854;DHT22;52627;48.838;2.402;2023-02-08T10:25:19;11.00;47.36
65854;DHT22;52627;48.838;2.402;2023-02-08T10:33:41;10.72;46.41
65854;DHT22;52627;48.838;2.402;2023-02-08T10:36:35;11.24;46.00
65854;DHT22;52627;48.838;2.402;2023-02-08T10:39:13;11.48;44.68
65854;DHT22;52627;48.838;2.402;2023-02-08T10:41:44;11.65;44.93
65854;DHT22;52627;48.838;2.402;2023-02-08T10:50:23;12.45;43.67
65854;DHT22;52627;48.838;2.402;2023-02-08T10:52:59;12.55;43.16
65854;DHT22;52627;48.838;2.402;2023-02-08T10:55:28;12.39;43.01
65854;DHT22;52627;48.838;2.402;2023-02-08T10:57:59;12.53;42.96
65854;DHT22;52627;48.838;2.402;2023-02-08T11:00:32;12.77;42.56
65854;DHT22;52627;48.838;2.402;2023-02-08T11:03:15;12.66;41.74
65854;DHT22;52627;48.838;2.402;2023-02-08T11:05:47;12.32;41.25
65854;DHT22;52627;48.838;2.402;2023-02-08T11:08:16;11.94;41.07
65854;DHT22;52627;48.838;2.402;2023-02-08T11:13:32;12.29;40.67
65854;DHT22;52627;48.838;2.402;2023-02-08T11:16:05;12.34;40.47
65854;DHT22;52627;48.838;2.402;2023-02-08T11:18:40;11.84;39.34
65854;DHT22;52627;48.838;2.402;2023-02-08T11:21:23;11.47;40.00
65854;DHT22;52627;48.838;2.402;2023-02-08T11:23:55;11.76;39.86
65854;DHT22;52627;48.838;2.402;2023-02-08T11:26:30;12.04;39.75
65854;DHT22;52627;48.838;2.402;2023-02-08T11:29:13;12.34;39.46
65854;DHT22;52627;48.838;2.402;2023-02-08T11:34:23;12.53;38.68
65854;DHT22;52627;48.838;2.402;2023-02-08T11:36:53;12.61;38.67
65854;DHT22;52627;48.838;2.402;2023-02-08T11:42:14;12.66;38.06
65854;DHT22;52627;48.838;2.402;2023-02-08T11:44:48;12.27;37.82
65854;DHT22;52627;48.838;2.402;2023-02-08T11:47:21;12.28;37.93
65854;DHT22;52627;48.838;2.402;2023-02-08T11:49:53;12.34;37.68
65854;DHT22;52627;48.838;2.402;2023-02-08T11:52:28;12.38;37.64
65854;DHT22;52627;48.838;2.402;2023-02-08T11:55:21;12.44;37.60
65854;DHT22;52627;48.838;2.402;2023-02-08T12:00:34;12.52;37.05
65854;DHT22;52627;48.838;2.402;2023-02-08T12:05:48;12.49;36.43
65854;DHT22;52627;48.838;2.402;2023-02-08T12:12:43;11.88;36.21
65854;DHT22;52627;48.838;2.402;2023-02-08T12:18:28;11.43;36.17
65854;DHT22;52627;48.838;2.402;2023-02-08T12:21:20;11.53;36.25
65854;DHT22;52627;48.838;2.402;2023-02-08T12:24:01;11.79;36.26
65854;DHT22;52627;48.838;2.402;2023-02-08T12:26:59;11.94;35.69
65854;DHT22;52627;48.838;2.402;2023-02-08T12:36:07;12.04;35.68
65854;DHT22;52627;48.838;2.402;2023-02-08T12:43:22;12.51;35.46
65854;DHT22;52627;48.838;2.402;2023-02-08T12:46:05;12.71;35.29
65854;DHT22;52627;48.838;2.402;2023-02-08T12:54:45;13.04;34.44
65854;DHT22;52627;48.838;2.402;2023-02-08T12:57:21;13.09;34.47
65854;DHT22;52627;48.838;2.402;2023-02-08T12:59:53;13.15;34.38
65854;DHT22;52627;48.838;2.402;2023-02-08T13:02:41;13.27;34.23
65854;DHT22;52627;48.838;2.402;2023-02-08T13:05:25;13.39;34.02
65854;DHT22;52627;48.838;2.402;2023-02-08T13:11:10;13.29;33.46
65854;DHT22;52627;48.838;2.402;2023-02-08T13:14:05;13.03;33.33
65854;DHT22;52627;48.838;2.402;2023-02-08T13:16:44;12.72;33.12
65854;DHT22;52627;48.838;2.402;2023-02-08T13:19:28;12.47;33.08
65854;DHT22;52627;48.838;2.402;2023-02-08T13:22:20;12.28;32.79
65854;DHT22;52627;48.838;2.402;2023-02-08T13:24:48;12.07;32.58
65854;DHT22;52627;48.838;2.402;2023-02-08T13:27:33;11.88;32.31
65854;DHT22;52627;48.838;2.402;2023-02-08T13:30:00;11.65;32.06
65854;DHT22;52627;48.838;2.402;2023-02-08T13:32:29;11.45;32.07
65854;DHT22;52627;48.838;2.402;2023-02-08T13:35:45;11.28;31.95
65854;DHT22;52627;48.838;2.402;2023-02-08T13:38:05;11.04;31.82
65854;DHT22;52627;48.838;2.402;2023-02-08T13:40:45;10.93;31.91
65854;DHT22;52627;48.838;2.402;2023-02-08T13:43:22;10.83;31.72
65854;DHT22;52627;48.838;2.402;2023-02-08T13:46:02;10.63;31.43
65854;DHT22;52627;48.838;2.402;2023-02-08T13:48:41;10.30;31.16
65854;DHT22;52627;48.838;2.402;2023-02-08T13:59:40;9.56;31.38
65854;DHT22;52627;48.838;2.402;2023-02-08T14:04:41;9.58;31.22
65854;DHT22;52627;48.838;2.402;2023-02-08T14:15:26;9.57;31.62
65854;DHT22;52627;48.838;2.402;2023-02-08T14:18:03;9.56;31.63
65854;DHT22;52627;48.838;2.402;2023-02-08T14:20:59;9.58;31.70
65854;DHT22;52627;48.838;2.402;2023-02-08T14:23:34;9.49;31.39
65854;DHT22;52627;48.838;2.402;2023-02-08T14:26:14;9.29;31.57
65854;DHT22;52627;48.838;2.402;2023-02-08T14:28:53;9.31;31.74
65854;DHT22;52627;48.838;2.402;2023-02-08T14:31:34;9.37;31.74
65854;DHT22;52627;48.838;2.402;2023-02-08T14:34:18;9.35;31.68
65854;DHT22;52627;48.838;2.402;2023-02-08T14:36:57;9.29;31.71
65854;DHT22;52627;48.838;2.402;2023-02-08T14:39:45;9.26;31.77
65854;DHT22;52627;48.838;2.402;2023-02-08T14:42:52;9.25;31.76
65854;DHT22;52627;48.838;2.402;2023-02-08T14:59:12;9.09;31.76
65854;DHT22;52627;48.838;2.402;2023-02-08T15:01:50;9.04;31.80
65854;DHT22;52627;48.838;2.402;2023-02-08T15:04:22;9.04;31.83
65854;DHT22;52627;48.838;2.402;2023-02-08T15:06:59;8.99;31.84
65854;DHT22;52627;48.838;2.402;2023-02-08T15:09:40;8.96;31.88
65854;DHT22;52627;48.838;2.402;2023-02-08T15:14:58;9.00;32.02
65854;DHT22;52627;48.838;2.402;2023-02-08T15:17:44;8.95;31.85
65854;DHT22;52627;48.838;2.402;2023-02-08T15:20:16;8.71;31.75
65854;DHT22;52627;48.838;2.402;2023-02-08T15:22:55;8.51;31.87
65854;DHT22;52627;48.838;2.402;2023-02-08T15:25:42;8.42;32.01
65854;DHT22;52627;48.838;2.402;2023-02-08T15:30:51;8.33;32.21
65854;DHT22;52627;48.838;2.402;2023-02-08T15:33:29;8.37;32.36
65854;DHT22;52627;48.838;2.402;2023-02-08T15:35:59;8.40;32.49
65854;DHT22;52627;48.838;2.402;2023-02-08T15:38:32;8.47;32.61
65854;DHT22;52627;48.838;2.402;2023-02-08T15:41:06;8.45;32.67
65854;DHT22;52627;48.838;2.402;2023-02-08T15:43:40;8.45;32.81
65854;DHT22;52627;48.838;2.402;2023-02-08T15:46:17;8.46;32.93
65854;DHT22;52627;48.838;2.402;2023-02-08T15:48:49;8.44;33.03
65854;DHT22;52627;48.838;2.402;2023-02-08T15:51:17;8.37;33.10
65854;DHT22;52627;48.838;2.402;2023-02-08T15:53:50;8.32;33.19
65854;DHT22;52627;48.838;2.402;2023-02-08T15:56:22;8.32;33.28
65854;DHT22;52627;48.838;2.402;2023-02-08T15:59:06;8.29;33.39
65854;DHT22;52627;48.838;2.402;2023-02-08T16:01:46;8.28;33.49
65854;DHT22;52627;48.838;2.402;2023-02-08T16:04:14;8.28;33.59
65854;DHT22;52627;48.838;2.402;2023-02-08T16:06:49;8.26;33.66
65854;DHT22;52627;48.838;2.402;2023-02-08T16:09:22;8.16;33.77
65854;DHT22;52627;48.838;2.402;2023-02-08T16:11:55;8.13;33.90
65854;DHT22;52627;48.838;2.402;2023-02-08T16:14:25;8.06;33.98
65854;DHT22;52627;48.838;2.402;2023-02-08T16:16:56;8.02;34.10
65854;DHT22;52627;48.838;2.402;2023-02-08T16:19:28;7.97;34.20
65854;DHT22;52627;48.838;2.402;2023-02-08T16:24:51;7.98;34.44
65854;DHT22;52627;48.838;2.402;2023-02-08T16:27:23;7.93;34.53
65854;DHT22;52627;48.838;2.402;2023-02-08T16:29:53;7.88;34.67
65854;DHT22;52627;48.838;2.402;2023-02-08T16:32:27;7.84;34.76
65854;DHT22;52627;48.838;2.402;2023-02-08T16:34:58;7.84;34.87
65854;DHT22;52627;48.838;2.402;2023-02-08T16:37:31;7.82;34.98
65854;DHT22;52627;48.838;2.402;2023-02-08T16:40:01;7.79;35.06
65854;DHT22;52627;48.838;2.402;2023-02-08T16:42:35;7.79;35.17
65854;DHT22;52627;48.838;2.402;2023-02-08T16:47:35;7.78;35.32
65854;DHT22;52627;48.838;2.402;2023-02-08T16:50:07;7.77;35.41
65854;DHT22;52627;48.838;2.402;2023-02-08T16:52:37;7.76;35.50
65854;DHT22;52627;48.838;2.402;2023-02-08T16:55:05;7.74;35.59
65854;DHT22;52627;48.838;2.402;2023-02-08T16:57:48;7.72;35.67
65854;DHT22;52627;48.838;2.402;2023-02-08T17:00:25;7.70;35.77
65854;DHT22;52627;48.838;2.402;2023-02-08T17:02:57;7.67;35.90
65854;DHT22;52627;48.838;2.402;2023-02-08T17:05:27;7.64;36.01
65854;DHT22;52627;48.838;2.402;2023-02-08T17:07:58;7.62;36.12
65854;DHT22;52627;48.838;2.402;2023-02-08T17:10:27;7.59;36.25
65854;DHT22;52627;48.838;2.402;2023-02-08T17:12:58;7.57;36.33
65854;DHT22;52627;48.838;2.402;2023-02-08T17:15:46;7.54;36.50
65854;DHT22;52627;48.838;2.402;2023-02-08T17:18:16;7.51;36.58
65854;DHT22;52627;48.838;2.402;2023-02-08T17:20:43;7.49;36.70
65854;DHT22;52627;48.838;2.402;2023-02-08T17:23:12;7.41;36.79
65854;DHT22;52627;48.838;2.402;2023-02-08T17:25:41;7.35;36.89
65854;DHT22;52627;48.838;2.402;2023-02-08T17:28:13;7.32;36.93
65854;DHT22;52627;48.838;2.402;2023-02-08T17:30:45;7.30;37.02
65854;DHT22;52627;48.838;2.402;2023-02-08T17:33:13;7.27;37.06
65854;DHT22;52627;48.838;2.402;2023-02-08T17:35:49;7.23;37.12
65854;DHT22;52627;48.838;2.402;2023-02-08T17:38:18;7.17;37.15
65854;DHT22;52627;48.838;2.402;2023-02-08T17:40:47;7.12;37.20
65854;DHT22;52627;48.838;2.402;2023-02-08T17:43:14;7.09;37.26
65854;DHT22;52627;48.838;2.402;2023-02-08T17:45:42;7.04;37.31
65854;DHT22;52627;48.838;2.402;2023-02-08T17:48:11;6.99;37.35
65854;DHT22;52627;48.838;2.402;2023-02-08T17:50:41;6.96;37.45
65854;DHT22;52627;48.838;2.402;2023-02-08T17:53:12;6.91;37.48
65854;DHT22;52627;48.838;2.402;2023-02-08T17:55:40;6.87;37.57
65854;DHT22;52627;48.838;2.402;2023-02-08T17:58:10;6.82;37.64
65854;DHT22;52627;48.838;2.402;2023-02-08T18:00:38;6.78;37.71
65854;DHT22;52627;48.838;2.402;2023-02-08T18:03:06;6.75;37.78
65854;DHT22;52627;48.838;2.402;2023-02-08T18:05:34;6.71;37.81
65854;DHT22;52627;48.838;2.402;2023-02-08T18:08:02;6.69;37.89
65854;DHT22;52627;48.838;2.402;2023-02-08T18:10:30;6.64;37.97
65854;DHT22;52627;48.838;2.402;2023-02-08T18:12:58;6.61;38.02
65854;DHT22;52627;48.838;2.402;2023-02-08T18:15:25;6.57;38.13
65854;DHT22;52627;48.838;2.402;2023-02-08T18:17:53;6.53;38.22
65854;DHT22;52627;48.838;2.402;2023-02-08T18:20:20;6.49;38.37
65854;DHT22;52627;48.838;2.402;2023-02-08T18:22:48;6.45;38.45
65854;DHT22;52627;48.838;2.402;2023-02-08T18:25:15;6.41;38.54
65854;DHT22;52627;48.838;2.402;2023-02-08T18:27:43;6.38;38.65
65854;DHT22;52627;48.838;2.402;2023-02-08T18:30:11;6.34;38.79
65854;DHT22;52627;48.838;2.402;2023-02-08T18:32:40;6.28;38.90
65854;DHT22;52627;48.838;2.402;2023-02-08T18:35:08;6.25;38.97
65854;DHT22;52627;48.838;2.402;2023-02-08T18:37:35;6.21;39.11
65854;DHT22;52627;48.838;2.402;2023-02-08T18:40:04;6.17;39.21
65854;DHT22;52627;48.838;2.402;2023-02-08T18:42:34;6.16;39.28
65854;DHT22;52627;48.838;2.402;2023-02-08T18:45:05;6.14;39.40
65854;DHT22;52627;48.838;2.402;2023-02-08T18:47:36;6.13;39.60
65854;DHT22;52627;48.838;2.402;2023-02-08T18:50:05;6.09;39.81